Aviation Digital Data Service (ADDS)

Output produced by METARs form (0747 UTC 18 February 2019)
found at http://www.aviationweather.gov/metar/data/
 
METAR text: KMAF 180653Z AUTO 11009KT 10SM CLR 04/M03 A3003 RMK AO2 SLP155 T00441028
Conditions at: KMAF (MIDLAND , TX, US) observed 0653 UTC 18 February 2019
Temperature: 4.4°C (40°F)
Dewpoint: -2.8°C (27°F) [RH = 59%]
Pressure (altimeter): 30.03 inches Hg (1017.0 mb)
[Sea-level pressure: 1015.5 mb]
Winds: from the ESE (110 degrees) at 10 MPH (9 knots; 4.6 m/s)
Visibility: 10 or more miles (16+ km)
Ceiling: at least 12,000 feet AGL
Clouds: sky clear below 12,000 feet AGL
Weather: automated observation with no human augmentation;
there may or may not be significant weather present at this time

METAR text: KMAF 180553Z AUTO 09008KT 10SM CLR 05/M03 A3002 RMK AO2 SLP150 T00501028 10122 20050 401390000 51018
Conditions at: KMAF (MIDLAND , TX, US) observed 0553 UTC 18 February 2019
Temperature: 5.0°C (41°F)
Dewpoint: -2.8°C (27°F) [RH = 57%]
Pressure (altimeter): 30.02 inches Hg (1016.7 mb)
[Sea-level pressure: 1015.0 mb]
Winds: from the E (90 degrees) at 9 MPH (8 knots; 4.1 m/s)
Visibility: 10 or more miles (16+ km)
Ceiling: at least 12,000 feet AGL
Clouds: sky clear below 12,000 feet AGL
Weather: automated observation with no human augmentation;
there may or may not be significant weather present at this time

METAR text: KMAF 180453Z 11008KT 10SM CLR 06/M03 A3000 RMK AO2 SLP146 T00561033
Conditions at: KMAF (MIDLAND , TX, US) observed 0453 UTC 18 February 2019
Temperature: 5.6°C (42°F)
Dewpoint: -3.3°C (26°F) [RH = 53%]
Pressure (altimeter): 30.00 inches Hg (1016.0 mb)
[Sea-level pressure: 1014.6 mb]
Winds: from the ESE (110 degrees) at 9 MPH (8 knots; 4.1 m/s)
Visibility: 10 or more miles (16+ km)
Ceiling: at least 12,000 feet AGL
Clouds: sky clear below 12,000 feet AGL
Weather: no significant weather observed at this time

METAR text: KMAF 180353Z 11010KT 10SM CLR 07/M03 A2999 RMK AO2 SLP140 T00721033
Conditions at: KMAF (MIDLAND , TX, US) observed 0353 UTC 18 February 2019
Temperature: 7.2°C (45°F)
Dewpoint: -3.3°C (26°F) [RH = 47%]
Pressure (altimeter): 29.99 inches Hg (1015.7 mb)
[Sea-level pressure: 1014.0 mb]
Winds: from the ESE (110 degrees) at 12 MPH (10 knots; 5.1 m/s)
Visibility: 10 or more miles (16+ km)
Ceiling: at least 12,000 feet AGL
Clouds: sky clear below 12,000 feet AGL
Weather: no significant weather observed at this time

METAR text: KMAF 180253Z 11014KT 10SM CLR 08/M04 A2996 RMK AO2 SLP134 T00831044 53020
Conditions at: KMAF (MIDLAND , TX, US) observed 0253 UTC 18 February 2019
Temperature: 8.3°C (47°F)
Dewpoint: -4.4°C (24°F) [RH = 40%]
Pressure (altimeter): 29.96 inches Hg (1014.6 mb)
[Sea-level pressure: 1013.4 mb]
Winds: from the ESE (110 degrees) at 16 MPH (14 knots; 7.2 m/s)
Visibility: 10 or more miles (16+ km)
Ceiling: at least 12,000 feet AGL
Clouds: sky clear below 12,000 feet AGL
Weather: no significant weather observed at this time

METAR text: KMAF 180153Z 09010KT 10SM CLR 09/M05 A2993 RMK AO2 SLP127 T00941050
Conditions at: KMAF (MIDLAND , TX, US) observed 0153 UTC 18 February 2019
Temperature: 9.4°C (49°F)
Dewpoint: -5.0°C (23°F) [RH = 36%]
Pressure (altimeter): 29.93 inches Hg (1013.6 mb)
[Sea-level pressure: 1012.7 mb]
Winds: from the E (90 degrees) at 12 MPH (10 knots; 5.1 m/s)
Visibility: 10 or more miles (16+ km)
Ceiling: at least 12,000 feet AGL
Clouds: sky clear below 12,000 feet AGL
Weather: no significant weather observed at this time

METAR text: KMAF 180053Z 10009KT 10SM CLR 11/M05 A2991 RMK AO2 SLP116 T01061050
Conditions at: KMAF (MIDLAND , TX, US) observed 0053 UTC 18 February 2019
Temperature: 10.6°C (51°F)
Dewpoint: -5.0°C (23°F) [RH = 33%]
Pressure (altimeter): 29.91 inches Hg (1013.0 mb)
[Sea-level pressure: 1011.6 mb]
Winds: from the E (100 degrees) at 10 MPH (9 knots; 4.6 m/s)
Visibility: 10 or more miles (16+ km)
Ceiling: at least 12,000 feet AGL
Clouds: sky clear below 12,000 feet AGL
Weather: no significant weather observed at this time

METAR text: KMAF 172353Z 12009KT 10SM CLR 12/M06 A2990 RMK AO2 SLP110 T01221056 10139 20111 56001
Conditions at: KMAF (MIDLAND , TX, US) observed 2353 UTC 17 February 2019
Temperature: 12.2°C (54°F)
Dewpoint: -5.6°C (22°F) [RH = 28%]
Pressure (altimeter): 29.90 inches Hg (1012.6 mb)
[Sea-level pressure: 1011.0 mb]
Winds: from the ESE (120 degrees) at 10 MPH (9 knots; 4.6 m/s)
Visibility: 10 or more miles (16+ km)
Ceiling: at least 12,000 feet AGL
Clouds: sky clear below 12,000 feet AGL
Weather: no significant weather observed at this time

METAR text: KMAF 172253Z 12009KT 10SM CLR 13/M05 A2990 RMK AO2 SLP108 T01331050
Conditions at: KMAF (MIDLAND , TX, US) observed 2253 UTC 17 February 2019
Temperature: 13.3°C (56°F)
Dewpoint: -5.0°C (23°F) [RH = 28%]
Pressure (altimeter): 29.90 inches Hg (1012.6 mb)
[Sea-level pressure: 1010.8 mb]
Winds: from the ESE (120 degrees) at 10 MPH (9 knots; 4.6 m/s)
Visibility: 10 or more miles (16+ km)
Ceiling: at least 12,000 feet AGL
Clouds: sky clear below 12,000 feet AGL
Weather: no significant weather observed at this time

METAR text: KMAF 172153Z 12006KT 10SM CLR 13/M06 A2990 RMK AO2 SLP106 T01331056
Conditions at: KMAF (MIDLAND , TX, US) observed 2153 UTC 17 February 2019
Temperature: 13.3°C (56°F)
Dewpoint: -5.6°C (22°F) [RH = 26%]
Pressure (altimeter): 29.90 inches Hg (1012.6 mb)
[Sea-level pressure: 1010.6 mb]
Winds: from the ESE (120 degrees) at 7 MPH (6 knots; 3.1 m/s)
Visibility: 10 or more miles (16+ km)
Ceiling: at least 12,000 feet AGL
Clouds: sky clear below 12,000 feet AGL
Weather: no significant weather observed at this time

METAR text: KMAF 172053Z 17007KT 10SM CLR 13/M06 A2990 RMK AO2 SLP107 T01331056 56024
Conditions at: KMAF (MIDLAND , TX, US) observed 2053 UTC 17 February 2019
Temperature: 13.3°C (56°F)
Dewpoint: -5.6°C (22°F) [RH = 26%]
Pressure (altimeter): 29.90 inches Hg (1012.6 mb)
[Sea-level pressure: 1010.7 mb]
Winds: from the S (170 degrees) at 8 MPH (7 knots; 3.6 m/s)
Visibility: 10 or more miles (16+ km)
Ceiling: at least 12,000 feet AGL
Clouds: sky clear below 12,000 feet AGL
Weather: no significant weather observed at this time

METAR text: KMAF 171953Z 14005KT 10SM CLR 13/M06 A2992 RMK AO2 SLP111 T01281061
Conditions at: KMAF (MIDLAND , TX, US) observed 1953 UTC 17 February 2019
Temperature: 12.8°C (55°F)
Dewpoint: -6.1°C (21°F) [RH = 26%]
Pressure (altimeter): 29.92 inches Hg (1013.3 mb)
[Sea-level pressure: 1011.1 mb]
Winds: from the SE (140 degrees) at 6 MPH (5 knots; 2.6 m/s)
Visibility: 10 or more miles (16+ km)
Ceiling: at least 12,000 feet AGL
Clouds: sky clear below 12,000 feet AGL
Weather: no significant weather observed at this time

METAR text: KMAF 171853Z 09005KT 10SM CLR 12/M06 A2995 RMK AO2 SLP121 T01221061
Conditions at: KMAF (MIDLAND , TX, US) observed 1853 UTC 17 February 2019
Temperature: 12.2°C (54°F)
Dewpoint: -6.1°C (21°F) [RH = 27%]
Pressure (altimeter): 29.95 inches Hg (1014.3 mb)
[Sea-level pressure: 1012.1 mb]
Winds: from the E (90 degrees) at 6 MPH (5 knots; 2.6 m/s)
Visibility: 10 or more miles (16+ km)
Ceiling: at least 12,000 feet AGL
Clouds: sky clear below 12,000 feet AGL
Weather: no significant weather observed at this time

METAR text: KMAF 171753Z 07008KT 10SM CLR 11/M06 A2998 RMK AO2 SLP129 T01111061 10117 20000 50005
Conditions at: KMAF (MIDLAND , TX, US) observed 1753 UTC 17 February 2019
Temperature: 11.1°C (52°F)
Dewpoint: -6.1°C (21°F) [RH = 29%]
Pressure (altimeter): 29.98 inches Hg (1015.3 mb)
[Sea-level pressure: 1012.9 mb]
Winds: from the ENE (70 degrees) at 9 MPH (8 knots; 4.1 m/s)
Visibility: 10 or more miles (16+ km)
Ceiling: at least 12,000 feet AGL
Clouds: sky clear below 12,000 feet AGL
Weather: no significant weather observed at this time

METAR text: KMAF 171653Z 07008KT 10SM CLR 10/M06 A2998 RMK AO2 SLP129 T01001056
Conditions at: KMAF (MIDLAND , TX, US) observed 1653 UTC 17 February 2019
Temperature: 10.0°C (50°F)
Dewpoint: -5.6°C (22°F) [RH = 33%]
Pressure (altimeter): 29.98 inches Hg (1015.3 mb)
[Sea-level pressure: 1012.9 mb]
Winds: from the ENE (70 degrees) at 9 MPH (8 knots; 4.1 m/s)
Visibility: 10 or more miles (16+ km)
Ceiling: at least 12,000 feet AGL
Clouds: sky clear below 12,000 feet AGL
Weather: no significant weather observed at this time

METAR text: KMAF 171553Z 06010KT 10SM CLR 08/M05 A2998 RMK AO2 SLP130 T00781050
Conditions at: KMAF (MIDLAND , TX, US) observed 1553 UTC 17 February 2019
Temperature: 7.8°C (46°F)
Dewpoint: -5.0°C (23°F) [RH = 40%]
Pressure (altimeter): 29.98 inches Hg (1015.3 mb)
[Sea-level pressure: 1013.0 mb]
Winds: from the ENE (60 degrees) at 12 MPH (10 knots; 5.1 m/s)
Visibility: 10 or more miles (16+ km)
Ceiling: at least 12,000 feet AGL
Clouds: sky clear below 12,000 feet AGL
Weather: no significant weather observed at this time

METAR text: KMAF 171453Z 03008KT 10SM CLR 04/M06 A2996 RMK AO2 SLP127 T00391056 51021
Conditions at: KMAF (MIDLAND , TX, US) observed 1453 UTC 17 February 2019
Temperature: 3.9°C (39°F)
Dewpoint: -5.6°C (22°F) [RH = 50%]
Pressure (altimeter): 29.96 inches Hg (1014.6 mb)
[Sea-level pressure: 1012.7 mb]
Winds: from the NNE (30 degrees) at 9 MPH (8 knots; 4.1 m/s)
Visibility: 10 or more miles (16+ km)
Ceiling: at least 12,000 feet AGL
Clouds: sky clear below 12,000 feet AGL
Weather: no significant weather observed at this time

METAR text: KMAF 171353Z 01007KT 10SM CLR 01/M06 A2995 RMK AO2 SLP127 T00061061
Conditions at: KMAF (MIDLAND , TX, US) observed 1353 UTC 17 February 2019
Temperature: 0.6°C (33°F)
Dewpoint: -6.1°C (21°F) [RH = 61%]
Pressure (altimeter): 29.95 inches Hg (1014.3 mb)
[Sea-level pressure: 1012.7 mb]
Winds: from the N (10 degrees) at 8 MPH (7 knots; 3.6 m/s)
Visibility: 10 or more miles (16+ km)
Ceiling: at least 12,000 feet AGL
Clouds: sky clear below 12,000 feet AGL
Weather: no significant weather observed at this time

METAR text: KMAF 171253Z 01007KT 10SM CLR 01/M07 A2992 RMK AO2 SLP111 T00111067
Conditions at: KMAF (MIDLAND , TX, US) observed 1253 UTC 17 February 2019
Temperature: 1.1°C (34°F)
Dewpoint: -6.7°C (20°F) [RH = 56%]
Pressure (altimeter): 29.92 inches Hg (1013.3 mb)
[Sea-level pressure: 1011.1 mb]
Winds: from the N (10 degrees) at 8 MPH (7 knots; 3.6 m/s)
Visibility: 10 or more miles (16+ km)
Ceiling: at least 12,000 feet AGL
Clouds: sky clear below 12,000 feet AGL
Weather: no significant weather observed at this time

METAR text: KMAF 171153Z 02007KT 10SM CLR 03/M08 A2989 RMK AO2 SLP099 T00281078 10133 20028 53020
Conditions at: KMAF (MIDLAND , TX, US) observed 1153 UTC 17 February 2019
Temperature: 2.8°C (37°F)
Dewpoint: -7.8°C (18°F) [RH = 46%]
Pressure (altimeter): 29.89 inches Hg (1012.3 mb)
[Sea-level pressure: 1009.9 mb]
Winds: from the NNE (20 degrees) at 8 MPH (7 knots; 3.6 m/s)
Visibility: 10 or more miles (16+ km)
Ceiling: at least 12,000 feet AGL
Clouds: sky clear below 12,000 feet AGL
Weather: no significant weather observed at this time

METAR text: KMAF 171053Z AUTO 32008KT 10SM CLR 04/M07 A2987 RMK AO2 SLP086 T00441067
Conditions at: KMAF (MIDLAND , TX, US) observed 1053 UTC 17 February 2019
Temperature: 4.4°C (40°F)
Dewpoint: -6.7°C (20°F) [RH = 44%]
Pressure (altimeter): 29.87 inches Hg (1011.6 mb)
[Sea-level pressure: 1008.6 mb]
Winds: from the NW (320 degrees) at 9 MPH (8 knots; 4.1 m/s)
Visibility: 10 or more miles (16+ km)
Ceiling: at least 12,000 feet AGL
Clouds: sky clear below 12,000 feet AGL
Weather: automated observation with no human augmentation;
there may or may not be significant weather present at this time

METAR text: KMAF 170953Z AUTO 31008KT 10SM CLR 04/M06 A2984 RMK AO2 SLP078 T00391061
Conditions at: KMAF (MIDLAND , TX, US) observed 0953 UTC 17 February 2019
Temperature: 3.9°C (39°F)
Dewpoint: -6.1°C (21°F) [RH = 48%]
Pressure (altimeter): 29.84 inches Hg (1010.6 mb)
[Sea-level pressure: 1007.8 mb]
Winds: from the NW (310 degrees) at 9 MPH (8 knots; 4.1 m/s)
Visibility: 10 or more miles (16+ km)
Ceiling: at least 12,000 feet AGL
Clouds: sky clear below 12,000 feet AGL
Weather: automated observation with no human augmentation;
there may or may not be significant weather present at this time

METAR text: KMAF 170853Z AUTO 31007KT 10SM CLR 06/M06 A2983 RMK AO2 SLP071 T00561061 53019
Conditions at: KMAF (MIDLAND , TX, US) observed 0853 UTC 17 February 2019
Temperature: 5.6°C (42°F)
Dewpoint: -6.1°C (21°F) [RH = 43%]
Pressure (altimeter): 29.83 inches Hg (1010.2 mb)
[Sea-level pressure: 1007.1 mb]
Winds: from the NW (310 degrees) at 8 MPH (7 knots; 3.6 m/s)
Visibility: 10 or more miles (16+ km)
Ceiling: at least 12,000 feet AGL
Clouds: sky clear below 12,000 feet AGL
Weather: automated observation with no human augmentation;
there may or may not be significant weather present at this time

METAR text: KMAF 170753Z AUTO 31004KT 10SM CLR 08/M07 A2981 RMK AO2 SLP064 T00781067
Conditions at: KMAF (MIDLAND , TX, US) observed 0753 UTC 17 February 2019
Temperature: 7.8°C (46°F)
Dewpoint: -6.7°C (20°F) [RH = 35%]
Pressure (altimeter): 29.81 inches Hg (1009.6 mb)
[Sea-level pressure: 1006.4 mb]
Winds: from the NW (310 degrees) at 5 MPH (4 knots; 2.1 m/s)
Visibility: 10 or more miles (16+ km)
Ceiling: at least 12,000 feet AGL
Clouds: sky clear below 12,000 feet AGL
Weather: automated observation with no human augmentation;
there may or may not be significant weather present at this time

METAR text: KMAF 170653Z AUTO 33008KT 10SM CLR 10/M07 A2978 RMK AO2 SLP055 T01001067
Conditions at: KMAF (MIDLAND , TX, US) observed 0653 UTC 17 February 2019
Temperature: 10.0°C (50°F)
Dewpoint: -6.7°C (20°F) [RH = 30%]
Pressure (altimeter): 29.78 inches Hg (1008.5 mb)
[Sea-level pressure: 1005.5 mb]
Winds: from the NNW (330 degrees) at 9 MPH (8 knots; 4.1 m/s)
Visibility: 10 or more miles (16+ km)
Ceiling: at least 12,000 feet AGL
Clouds: sky clear below 12,000 feet AGL
Weather: automated observation with no human augmentation;
there may or may not be significant weather present at this time

METAR text: KMAF 170553Z AUTO 34015G23KT 10SM CLR 13/M09 A2977 RMK AO2 SLP050 T01331089 10239 20133 402670022 53033
Conditions at: KMAF (MIDLAND , TX, US) observed 0553 UTC 17 February 2019
Temperature: 13.3°C (56°F)
Dewpoint: -8.9°C (16°F) [RH = 20%]
Pressure (altimeter): 29.77 inches Hg (1008.2 mb)
[Sea-level pressure: 1005.0 mb]
Winds: from the NNW (340 degrees) at 17 MPH (15 knots; 7.7 m/s)
gusting to 26 MPH (23 knots; 11.8 m/s)
Visibility: 10 or more miles (16+ km)
Ceiling: at least 12,000 feet AGL
Clouds: sky clear below 12,000 feet AGL
Weather: automated observation with no human augmentation;
there may or may not be significant weather present at this time

METAR text: KMAF 170453Z 30010KT 10SM CLR 14/M06 A2974 RMK AO2 SLP045 T01391061
Conditions at: KMAF (MIDLAND , TX, US) observed 0453 UTC 17 February 2019
Temperature: 13.9°C (57°F)
Dewpoint: -6.1°C (21°F) [RH = 24%]
Pressure (altimeter): 29.74 inches Hg (1007.2 mb)
[Sea-level pressure: 1004.5 mb]
Winds: from the WNW (300 degrees) at 12 MPH (10 knots; 5.1 m/s)
Visibility: 10 or more miles (16+ km)
Ceiling: at least 12,000 feet AGL
Clouds: sky clear below 12,000 feet AGL
Weather: no significant weather observed at this time

METAR text: KMAF 170353Z 30011KT 10SM CLR 15/M07 A2969 RMK AO2 SLP034 T01501067
Conditions at: KMAF (MIDLAND , TX, US) observed 0353 UTC 17 February 2019
Temperature: 15.0°C (59°F)
Dewpoint: -6.7°C (20°F) [RH = 22%]
Pressure (altimeter): 29.69 inches Hg (1005.5 mb)
[Sea-level pressure: 1003.4 mb]
Winds: from the WNW (300 degrees) at 13 MPH (11 knots; 5.7 m/s)
Visibility: 10 or more miles (16+ km)
Ceiling: at least 12,000 feet AGL
Clouds: sky clear below 12,000 feet AGL
Weather: no significant weather observed at this time

METAR text: KMAF 170253Z 30012KT 10SM CLR 16/M08 A2966 RMK AO2 SLP025 T01611078 53024
Conditions at: KMAF (MIDLAND , TX, US) observed 0253 UTC 17 February 2019
Temperature: 16.1°C (61°F)
Dewpoint: -7.8°C (18°F) [RH = 19%]
Pressure (altimeter): 29.66 inches Hg (1004.5 mb)
[Sea-level pressure: 1002.5 mb]
Winds: from the WNW (300 degrees) at 14 MPH (12 knots; 6.2 m/s)
Visibility: 10 or more miles (16+ km)
Ceiling: at least 12,000 feet AGL
Clouds: sky clear below 12,000 feet AGL
Weather: no significant weather observed at this time

METAR text: KMAF 170153Z 28009KT 10SM CLR 15/M07 A2964 RMK AO2 SLP017 T01501072
Conditions at: KMAF (MIDLAND , TX, US) observed 0153 UTC 17 February 2019
Temperature: 15.0°C (59°F)
Dewpoint: -7.2°C (19°F) [RH = 21%]
Pressure (altimeter): 29.64 inches Hg (1003.8 mb)
[Sea-level pressure: 1001.7 mb]
Winds: from the W (280 degrees) at 10 MPH (9 knots; 4.6 m/s)
Visibility: 10 or more miles (16+ km)
Ceiling: at least 12,000 feet AGL
Clouds: sky clear below 12,000 feet AGL
Weather: no significant weather observed at this time

METAR text: KMAF 170053Z 27012KT 10SM CLR 20/M06 A2961 RMK AO2 SLP004 T02001061
Conditions at: KMAF (MIDLAND , TX, US) observed 0053 UTC 17 February 2019
Temperature: 20.0°C (68°F)
Dewpoint: -6.1°C (21°F) [RH = 17%]
Pressure (altimeter): 29.61 inches Hg (1002.8 mb)
[Sea-level pressure: 1000.4 mb]
Winds: from the W (270 degrees) at 14 MPH (12 knots; 6.2 m/s)
Visibility: 10 or more miles (16+ km)
Ceiling: at least 12,000 feet AGL
Clouds: sky clear below 12,000 feet AGL
Weather: no significant weather observed at this time

METAR text: KMAF 162353Z 26017G25KT 10SM CLR 24/M04 A2959 RMK AO2 PK WND 24035/2311 SLP993 T02391039 10267 20189 56009
Conditions at: KMAF (MIDLAND , TX, US) observed 2353 UTC 16 February 2019
Temperature: 23.9°C (75°F)
Dewpoint: -3.9°C (25°F) [RH = 15%]
Pressure (altimeter): 29.59 inches Hg (1002.1 mb)
[Sea-level pressure:  999.3 mb]
Winds: from the W (260 degrees) at 20 MPH (17 knots; 8.7 m/s)
gusting to 29 MPH (25 knots; 12.9 m/s)
Visibility: 10 or more miles (16+ km)
Ceiling: at least 12,000 feet AGL
Clouds: sky clear below 12,000 feet AGL
Weather: no significant weather observed at this time

METAR text: KMAF 162253Z 26023G29KT 10SM CLR 26/M03 A2959 RMK AO2 PK WND 24036/2223 SLP990 T02561033
Conditions at: KMAF (MIDLAND , TX, US) observed 2253 UTC 16 February 2019
Temperature: 25.6°C (78°F)
Dewpoint: -3.3°C (26°F) [RH = 15%]
Pressure (altimeter): 29.59 inches Hg (1002.1 mb)
[Sea-level pressure:  999.0 mb]
Winds: from the W (260 degrees) at 26 MPH (23 knots; 11.8 m/s)
gusting to 33 MPH (29 knots; 14.9 m/s)
Visibility: 10 or more miles (16+ km)
Ceiling: at least 12,000 feet AGL
Clouds: sky clear below 12,000 feet AGL
Weather: no significant weather observed at this time

METAR text: KMAF 162153Z 24024G37KT 10SM CLR 26/M05 A2959 RMK AO2 PK WND 25041/2104 SLP991 T02611050
Conditions at: KMAF (MIDLAND , TX, US) observed 2153 UTC 16 February 2019
Temperature: 26.1°C (79°F)
Dewpoint: -5.0°C (23°F) [RH = 12%]
Pressure (altimeter): 29.59 inches Hg (1002.1 mb)
[Sea-level pressure:  999.1 mb]
Winds: from the WSW (240 degrees) at 28 MPH (24 knots; 12.3 m/s)
gusting to 43 MPH (37 knots; 19.0 m/s)
Visibility: 10 or more miles (16+ km)
Ceiling: at least 12,000 feet AGL
Clouds: sky clear below 12,000 feet AGL
Weather: no significant weather observed at this time

METAR text: KMAF 162053Z 23023G29KT 10SM CLR 26/M01 A2962 RMK AO2 PK WND 24036/2042 SLP998 T02611011 56042
Conditions at: KMAF (MIDLAND , TX, US) observed 2053 UTC 16 February 2019
Temperature: 26.1°C (79°F)
Dewpoint: -1.1°C (30°F) [RH = 17%]
Pressure (altimeter): 29.62 inches Hg (1003.1 mb)
[Sea-level pressure:  999.8 mb]
Winds: from the SW (230 degrees) at 26 MPH (23 knots; 11.8 m/s)
gusting to 33 MPH (29 knots; 14.9 m/s)
Visibility: 10 or more miles (16+ km)
Ceiling: at least 12,000 feet AGL
Clouds: sky clear below 12,000 feet AGL
Weather: no significant weather observed at this time

METAR text: KMAF 161953Z 24023G32KT 10SM CLR 26/01 A2965 RMK AO2 PK WND 24036/1916 SLP008 T02560011
Conditions at: KMAF (MIDLAND , TX, US) observed 1953 UTC 16 February 2019
Temperature: 25.6°C (78°F)
Dewpoint: 1.1°C (34°F) [RH = 20%]
Pressure (altimeter): 29.65 inches Hg (1004.1 mb)
[Sea-level pressure: 1000.8 mb]
Winds: from the WSW (240 degrees) at 26 MPH (23 knots; 11.8 m/s)
gusting to 37 MPH (32 knots; 16.5 m/s)
Visibility: 10 or more miles (16+ km)
Ceiling: at least 12,000 feet AGL
Clouds: sky clear below 12,000 feet AGL
Weather: no significant weather observed at this time

Forecast for: KMAF (MIDLAND , TX, US)
Text: KMAF 180522Z 1806/1906 10010KT P6SM SCT250
Forecast period: 0600 to 1700 UTC 18 February 2019
Forecast type: FROM: standard forecast or significant change
Winds: from the E (100 degrees) at 12 MPH (10 knots; 5.1 m/s)
Visibility: 6 or more miles 10+ km)
Ceiling: at least 12,000 feet AGL
Clouds: scattered clouds at 25000 feet AGL
Weather: no significant weather forecast for this period
Text: FM181700 11017KT P6SM SCT250
Forecast period: 1700 UTC 18 February 2019 to 0600 UTC 19 February 2019
Forecast type: FROM: standard forecast or significant change
Winds: from the ESE (110 degrees) at 20 MPH (17 knots; 8.7 m/s)
Visibility: 6 or more miles 10+ km)
Ceiling: at least 12,000 feet AGL
Clouds: scattered clouds at 25000 feet AGL
Weather: no significant weather forecast for this period